Welcome to our new website - Welkom op onze vernieuwde website - Bienvenue sur notre nouveau site web - Willkommen auf unserer neuen Website

U vindt ons ook hier:

Het Weer Aktueel



METAR rapporten vliegvelden

   
EHAM - Amsterdam/Schiph, Netherlands
Afstand tot: WNW 31 km
Gewijzigd: 13-11-2019 13:25
Licht bewolkt  
Licht bewolkt  
   Wind: ZZW 13 km/h
Wind: ZZW 13 km/h
Temperatuur: 8°C
Voelt als: 6°C
Dauwpunt: 6°C
Vochtigheid: 87%
Barometer: 999 hPa
Bewolking: Licht bewolkt
Zicht: meer dan 10 km
Bewolking: Licht bewolkt 2500 ft
EHAM 131225Z 20007KT 150V230 9999 FEW025 08/06 Q0999 NOSIG
EHDL - Deelen Rnlafb, Netherlands
Afstand tot: OZO 48 km
Gewijzigd: 13-11-2019 13:25
Wat regen mogelijk, Bewolking  
Wat regen mogelijk, Bewolking  
   Wind: WZW 16.7 km/h
Wind: WZW 16.7 km/h
Temperatuur: 7°C
Voelt als: 4°C
Dauwpunt: 6°C
Vochtigheid: 93%
Barometer: 999 hPa
Bewolking: Bewolking
Zicht: meer dan 10 km
Bewolking: Gedeeltelijk bewolkt 1500 ft,
Gedeeltelijk bewolkt 2600 ft,
Grotendeels bewolkt 3000 ft,
Bewolking 3500 ft
EHDL 131225Z AUTO 25009KT 170V320 9999 -RA SCT015CB SCT026 BKN030 OVC035 07/06 Q0999 WHT
EHRD - Rotterdam Airpor, Netherlands
Afstand tot: WZW 56 km
Gewijzigd: 13-11-2019 13:25
Gedeeltelijk bewolkt  
Gedeeltelijk bewolkt  
   Wind: Westen 13 km/h
Wind: Westen 13 km/h
Temperatuur: 9°C
Voelt als: 7°C
Dauwpunt: 6°C
Vochtigheid: 82%
Barometer: 999 hPa
Bewolking: Gedeeltelijk bewolkt
Zicht: meer dan 10 km
Bewolking: Gedeeltelijk bewolkt
EHRD 131225Z AUTO 27007KT 240V300 9999 NSC 09/06 Q0999 TEMPO 7000 -SHRA FEW020CB
EHGR - Gilze-Rijen Rnla, Netherlands
Afstand tot: ZZW 70 km
Gewijzigd: 13-11-2019 13:25
Grotendeels bewolkt  
Grotendeels bewolkt  
   Wind: Westen 11.1 km/h
Wind: Westen 11.1 km/h
Temperatuur: 8°C
Voelt als: 6°C
Dauwpunt: 5°C
Vochtigheid: 82%
Barometer: 1000 hPa
Bewolking: Grotendeels bewolkt
Zicht: meer dan 10 km
Bewolking: Gedeeltelijk bewolkt 4100 ft,
Grotendeels bewolkt 4500 ft,
Grotendeels bewolkt 5000 ft
EHGR 131225Z AUTO 26006KT 9999 SCT041 BKN045 BKN050 08/05 Q1000 REDZ BLU 21008KT 9999 FEW015 SCT020 SCT030 TEMPO 4000 SHRA FEW006 SCT008 SCT018CB
EHVK - Volkel Rnlafb, Netherlands
Afstand tot: ZZO 70 km
Gewijzigd: 13-11-2019 13:25
Bewolking  
Bewolking  
   Wind: ZW 9.3 km/h
Wind: ZW 9.3 km/h
Temperatuur: 7°C
Voelt als: 5°C
Dauwpunt: 6°C
Vochtigheid: 93%
Barometer: 1000 hPa
Bewolking: Bewolking
Zicht: meer dan 10 km
Bewolking: Grotendeels bewolkt 2600 ft,
Bewolking 3000 ft
EHVK 131225Z AUTO 23005KT 9999 BKN026 OVC030 07/06 Q1000 BLU 24010KT 9999 SCT012 BKN015 TEMPO 24012G22KT 4500 SHRA SCT007 SCT015CB BKN020
EHEH - Eindhoven Rnlafb, Netherlands
Afstand tot: Z 82 km
Gewijzigd: 13-11-2019 13:33
Bewolking  
Bewolking  
   Wind: varieert 3.7 km/h
Wind: varieert 3.7 km/h
Temperatuur: 8°C
Dauwpunt: 6°C
Vochtigheid: 87%
Barometer: 1000 hPa
Bewolking: Bewolking
Zicht: meer dan 10 km
Bewolking: Licht bewolkt 1100 ft,
Gedeeltelijk bewolkt 1300 ft,
Bewolking 1600 ft
EHEH 131233Z AUTO VRB02KT 9999 FEW011 SCT013 OVC016 08/06 Q1000 GRN 22009KT 9999 SCT012 BKN015 TEMPO 4500 -SHRA SCT007 SCT018CB BKN022
EHKD - De Kooy (navy), Netherlands
Afstand tot: NNW 87 km
Gewijzigd: 13-11-2019 13:25
Grotendeels bewolkt  
Grotendeels bewolkt  
   Wind: WZW 22.2 km/h
Wind: WZW 22.2 km/h
Temperatuur: 10°C
Voelt als: 7°C
Dauwpunt: 6°C
Vochtigheid: 76%
Barometer: 997 hPa
Bewolking: Grotendeels bewolkt
Zicht: meer dan 10 km
Bewolking: Licht bewolkt 2800 ft,
Gedeeltelijk bewolkt 5800 ft,
Grotendeels bewolkt 9600 ft
EHKD 131225Z AUTO 25012KT 220V300 9999 FEW028 SCT058 BKN096 10/06 Q0997 REDZ BLU 28015G25KT 9999 SCT025 BKN040 TEMPO 4500 FEW012 SCT018CB BKN025
EDLV - Niederrhein, Germany
Afstand tot: ZO 92 km
Gewijzigd: 13-11-2019 13:20
Wat regen mogelijk, Grotendeels bewolkt  
Wat regen mogelijk, Grotendeels bewolkt  
   Wind: Westen 18.5 km/h
Wind: Westen 18.5 km/h
Temperatuur: 7°C
Voelt als: 4°C
Dauwpunt: 6°C
Vochtigheid: 93%
Barometer: 1000 hPa
Bewolking: Grotendeels bewolkt
Zicht: 9 km
Bewolking: Grotendeels bewolkt 2900 ft
EDLV 131220Z 27010KT 9000 -RA BKN029 07/06 Q1000
EHWO - Woensdrecht Rnla, Netherlands
Afstand tot: ZW 100 km
Gewijzigd: 13-11-2019 13:32
Motregen, Grotendeels bewolkt  
Motregen, Grotendeels bewolkt  
   Wind: Westen 20.4 km/h
Wind: Westen 20.4 km/h
Temperatuur: 8°C
Voelt als: 5°C
Dauwpunt: 6°C
Vochtigheid: 87%
Barometer: 1000 hPa
Bewolking: Grotendeels bewolkt
Zicht: meer dan 10 km
Bewolking: Licht bewolkt 1500 ft,
Gedeeltelijk bewolkt 3400 ft,
Grotendeels bewolkt 6600 ft
EHWO 131232Z AUTO 26011KT 240V310 9999 DZ FEW015CB SCT034 BKN066 08/06 Q1000 BLU 22009KT 9999 FEW018 SCT022 BKN040 TEMPO 25010G20KT 2500 SHRAGS BKN007 BKN015CB

Script ontwikkeld door  Saratoga-weather.org Aangepast voor de template door  Weerstation Leuven

Apparatuur in gebruik:

Weerstation
Davis VP2

Weerprogramma
Meteobridge

Weercomputer
MB-Pro

Webleverancier
easyhosting

Davis VP2

Meteobridge

MB-Pro

easyhosting